Time;durP1;ratioP1;P1;durP2;ratioP2;P2;SDS_P1;SDS_P2;PMS_P1;PMS_P2;Temp;Humidity;BMP_temperature;BMP_pressure;BME280_temperature;BME280_humidity;BME280_pressure;Samples;Min_cycle;Max_cycle;Signal;HPM_P1;HPM_P2
2021/10/18 00:01:00;;;;;;;;;;;10.40;98.10;;;;;;5059300;28;20054;-70
2021/10/18 00:03:26;;;;;;;;;;;10.40;98.10;;;;;;5061341;28;19925;-71
2021/10/18 00:05:51;;;;;;;;;;;10.40;98.00;;;;;;5058888;28;20379;-72
2021/10/18 00:08:17;;;;;;;;;;;10.40;98.10;;;;;;5041874;28;19916;-71
2021/10/18 00:10:42;;;;;;;;;;;10.40;98.10;;;;;;5059685;28;20290;-71
2021/10/18 00:13:08;;;;;;;;;;;10.40;98.00;;;;;;5060413;28;20313;-70
2021/10/18 00:15:33;;;;;;;;;;;10.40;98.00;;;;;;5058880;28;20426;-70
2021/10/18 00:17:59;;;;;;;;;;;10.30;98.00;;;;;;5039717;28;20007;-70
2021/10/18 00:20:25;;;;;;;;;;;10.30;98.20;;;;;;5048279;28;19923;-70
2021/10/18 00:22:51;;;;;;;;;;;10.30;98.00;;;;;;5041403;28;20310;-69
2021/10/18 00:25:17;;;;;;;;;;;10.40;98.10;;;;;;5057416;28;19913;-69
2021/10/18 00:27:43;;;;;;;;;;;10.40;98.10;;;;;;5058808;28;20411;-69
2021/10/18 00:30:08;;;;;;;;;;;10.40;98.10;;;;;;5059422;28;19987;-69
2021/10/18 00:32:34;;;;;;;;;;;10.40;98.10;;;;;;5059845;28;19912;-69
2021/10/18 00:34:59;;;;;;;;;;;10.40;98.10;;;;;;5059167;28;20383;-69
2021/10/18 00:37:25;;;;;;;;;;;10.40;98.10;;;;;;5058660;28;20421;-70
2021/10/18 00:39:51;;;;;;;;;;;10.40;98.00;;;;;;5058854;28;20366;-69
2021/10/18 00:42:16;;;;;;;;;;;10.40;97.90;;;;;;5058033;28;19928;-70
2021/10/18 00:44:42;;;;;;;;;;;10.40;97.80;;;;;;5060214;28;19958;-70
2021/10/18 00:47:07;;;;;;;;;;;10.40;97.70;;;;;;5058134;28;19977;-70
2021/10/18 00:49:33;;;;;;;;;;;10.50;97.90;;;;;;5059357;28;19920;-69
2021/10/18 00:51:58;;;;;;;;;;;10.50;97.60;;;;;;5058219;28;19917;-69
2021/10/18 00:54:24;;;;;;;;;;;10.50;97.60;;;;;;5059650;28;19916;-70
2021/10/18 00:56:50;;;;;;;;;;;10.50;97.50;;;;;;5059259;28;20386;-69
2021/10/18 00:59:15;;;;;;;;;;;10.50;97.40;;;;;;5059592;28;19927;-69
2021/10/18 01:01:41;;;;;;;;;;;10.50;97.30;;;;;;5059866;28;19916;-70
2021/10/18 01:04:06;;;;;;;;;;;10.60;97.10;;;;;;5057995;28;20256;-69
2021/10/18 01:06:32;;;;;;;;;;;10.60;97.10;;;;;;5041882;28;19971;-69
2021/10/18 01:08:57;;;;;;;;;;;10.60;96.90;;;;;;5044976;28;19916;-69
2021/10/18 01:11:23;;;;;;;;;;;10.60;96.90;;;;;;5038760;28;20035;-70
2021/10/18 01:13:48;;;;;;;;;;;10.60;97.00;;;;;;5058842;28;19922;-69
2021/10/18 01:16:15;;;;;;;;;;;10.60;97.00;;;;;;5058967;28;20435;-69
2021/10/18 01:18:40;;;;;;;;;;;10.60;96.90;;;;;;5058934;28;19924;-69
2021/10/18 01:21:06;;;;;;;;;;;10.60;96.90;;;;;;5058556;28;19970;-69
2021/10/18 01:23:31;;;;;;;;;;;10.60;96.90;;;;;;5059692;28;19919;-69
2021/10/18 01:25:57;;;;;;;;;;;10.60;96.90;;;;;;5060553;28;19966;-69
2021/10/18 01:28:22;;;;;;;;;;;10.60;96.80;;;;;;5040815;28;19917;-69
2021/10/18 01:30:48;;;;;;;;;;;10.60;96.70;;;;;;5056516;28;19913;-70
2021/10/18 01:33:13;;;;;;;;;;;10.60;96.90;;;;;;5046300;28;19940;-69
2021/10/18 01:35:38;;;;;;;;;;;10.60;96.90;;;;;;5058990;28;20011;-69
2021/10/18 01:38:05;;;;;;;;;;;10.60;96.80;;;;;;5056848;28;19909;-69
2021/10/18 01:40:30;;;;;;;;;;;10.60;96.70;;;;;;5056981;28;20003;-69
2021/10/18 01:42:56;;;;;;;;;;;10.60;96.80;;;;;;5058133;28;20004;-69
2021/10/18 01:45:22;;;;;;;;;;;10.60;96.70;;;;;;5059309;28;19920;-69
2021/10/18 01:47:47;;;;;;;;;;;10.60;96.70;;;;;;5057984;28;20361;-69
2021/10/18 01:50:23;;;;;;;;;;;10.60;96.80;;;;;;5058180;28;20310;-69
2021/10/18 01:52:49;;;;;;;;;;;10.60;96.70;;;;;;5057272;28;20947;-69
2021/10/18 01:55:16;;;;;;;;;;;10.50;96.70;;;;;;5057883;28;19909;-69
2021/10/18 01:57:41;;;;;;;;;;;10.50;96.80;;;;;;5058962;28;19931;-69
2021/10/18 02:00:07;;;;;;;;;;;10.50;96.80;;;;;;5056406;28;19917;-69
2021/10/18 02:02:33;;;;;;;;;;;10.50;96.80;;;;;;5058111;28;20014;-69
2021/10/18 02:04:59;;;;;;;;;;;10.50;96.80;;;;;;5059192;28;19913;-69
2021/10/18 02:07:24;;;;;;;;;;;10.50;96.80;;;;;;5058337;28;20294;-69
2021/10/18 02:09:52;;;;;;;;;;;10.50;96.80;;;;;;5058523;28;20437;-69
2021/10/18 02:12:18;;;;;;;;;;;10.50;96.80;;;;;;5056450;28;20004;-69
2021/10/18 02:14:44;;;;;;;;;;;10.50;97.00;;;;;;5058124;28;19923;-69
2021/10/18 02:17:09;;;;;;;;;;;10.50;96.80;;;;;;5060407;28;19920;-69
2021/10/18 02:19:35;;;;;;;;;;;10.40;96.90;;;;;;5059283;28;19946;-69
2021/10/18 02:22:00;;;;;;;;;;;10.40;96.90;;;;;;5058853;28;19928;-69
2021/10/18 02:24:25;;;;;;;;;;;10.40;96.90;;;;;;5059046;28;19917;-69
2021/10/18 02:26:51;;;;;;;;;;;10.40;97.20;;;;;;5058743;28;19912;-68
2021/10/18 02:29:16;;;;;;;;;;;10.40;97.00;;;;;;5056704;28;19913;-68
2021/10/18 02:31:42;;;;;;;;;;;10.30;96.90;;;;;;5057700;28;19921;-68
2021/10/18 02:34:07;;;;;;;;;;;10.30;96.90;;;;;;5057958;28;19913;-68
2021/10/18 02:36:32;;;;;;;;;;;10.20;97.00;;;;;;5048008;28;19912;-68
2021/10/18 02:38:58;;;;;;;;;;;10.20;97.00;;;;;;5058688;28;19939;-68
2021/10/18 02:41:23;;;;;;;;;;;10.10;97.10;;;;;;5060978;28;19917;-68
2021/10/18 02:43:49;;;;;;;;;;;10.00;97.20;;;;;;5058714;28;19913;-68
2021/10/18 02:46:14;;;;;;;;;;;10.00;97.30;;;;;;5057407;28;19912;-68
2021/10/18 02:48:40;;;;;;;;;;;10.00;97.30;;;;;;5059243;28;20350;-68
2021/10/18 02:51:06;;;;;;;;;;;9.90;97.30;;;;;;5061104;28;19924;-69
2021/10/18 02:53:31;;;;;;;;;;;9.90;97.40;;;;;;5050131;28;20324;-69
2021/10/18 02:55:56;;;;;;;;;;;9.90;97.50;;;;;;5061833;28;20315;-69
2021/10/18 02:58:22;;;;;;;;;;;9.90;97.50;;;;;;5061386;28;19917;-69
2021/10/18 03:00:47;;;;;;;;;;;9.90;97.50;;;;;;5061836;28;19913;-69
2021/10/18 03:03:13;;;;;;;;;;;9.90;97.60;;;;;;5059350;28;19926;-69
2021/10/18 03:05:38;;;;;;;;;;;9.90;97.60;;;;;;5062879;28;19919;-69
2021/10/18 03:08:04;;;;;;;;;;;9.80;97.60;;;;;;5060551;28;20040;-69
2021/10/18 03:10:29;;;;;;;;;;;9.80;97.60;;;;;;5061050;28;19924;-68
2021/10/18 03:12:55;;;;;;;;;;;9.80;97.60;;;;;;5061740;28;19921;-69
2021/10/18 03:15:20;;;;;;;;;;;9.70;97.60;;;;;;5061349;28;19917;-68
2021/10/18 03:17:45;;;;;;;;;;;9.70;97.80;;;;;;5059442;28;19978;-68
2021/10/18 03:20:12;;;;;;;;;;;9.70;97.90;;;;;;5062373;28;19923;-68
2021/10/18 03:22:37;;;;;;;;;;;9.70;97.90;;;;;;5062684;28;19966;-68
2021/10/18 03:25:03;;;;;;;;;;;9.70;97.90;;;;;;5062650;28;19948;-69
2021/10/18 03:27:29;;;;;;;;;;;9.70;97.90;;;;;;5062621;28;20005;-69
2021/10/18 03:29:54;;;;;;;;;;;9.70;97.90;;;;;;5060597;28;20378;-68
2021/10/18 03:32:20;;;;;;;;;;;9.70;98.00;;;;;;5061930;28;19975;-68
2021/10/18 03:34:45;;;;;;;;;;;9.70;97.90;;;;;;5060990;28;19916;-68
2021/10/18 03:37:11;;;;;;;;;;;9.70;97.90;;;;;;5060645;28;19908;-68
2021/10/18 03:39:36;;;;;;;;;;;9.70;98.00;;;;;;5064079;28;20003;-68
2021/10/18 03:42:02;;;;;;;;;;;9.70;98.10;;;;;;5065054;28;19955;-68
2021/10/18 03:44:27;;;;;;;;;;;9.60;98.00;;;;;;5060679;28;20402;-68
2021/10/18 03:46:53;;;;;;;;;;;9.60;98.10;;;;;;5059554;28;20398;-68
2021/10/18 03:49:18;;;;;;;;;;;9.60;98.10;;;;;;5045876;28;19920;-68
2021/10/18 03:51:44;;;;;;;;;;;9.60;98.10;;;;;;5061278;28;19919;-68
2021/10/18 03:54:09;;;;;;;;;;;9.50;98.10;;;;;;5061446;28;19965;-68
2021/10/18 03:56:35;;;;;;;;;;;9.50;98.20;;;;;;5061903;28;19920;-70
2021/10/18 03:59:00;;;;;;;;;;;9.50;98.20;;;;;;5062656;28;19912;-70
2021/10/18 04:01:25;;;;;;;;;;;9.40;98.20;;;;;;5062569;28;20046;-69
2021/10/18 04:03:51;;;;;;;;;;;9.40;98.30;;;;;;5061073;28;19916;-69
2021/10/18 04:06:16;;;;;;;;;;;9.40;98.40;;;;;;5060249;28;19912;-69
2021/10/18 04:08:42;;;;;;;;;;;9.40;98.40;;;;;;5060974;28;20059;-70
2021/10/18 04:11:07;;;;;;;;;;;9.30;98.40;;;;;;5058161;28;19917;-69
2021/10/18 04:13:33;;;;;;;;;;;9.30;98.40;;;;;;5059309;28;19942;-69
2021/10/18 04:15:58;;;;;;;;;;;9.30;98.50;;;;;;5058907;28;20058;-68
2021/10/18 04:18:24;;;;;;;;;;;9.30;98.50;;;;;;5059537;28;20422;-69
2021/10/18 04:20:49;;;;;;;;;;;9.20;98.60;;;;;;5042737;28;20402;-69
2021/10/18 04:23:15;;;;;;;;;;;9.20;98.70;;;;;;5059592;28;19913;-68
2021/10/18 04:25:40;;;;;;;;;;;9.20;98.60;;;;;;5061381;28;19924;-69
2021/10/18 04:28:06;;;;;;;;;;;9.20;98.70;;;;;;5059457;28;19921;-69
2021/10/18 04:30:31;;;;;;;;;;;9.20;98.70;;;;;;5057975;28;19937;-69
2021/10/18 04:32:57;;;;;;;;;;;9.20;98.70;;;;;;5057641;28;20320;-68
2021/10/18 04:35:22;;;;;;;;;;;9.20;98.70;;;;;;5040791;28;20016;-69
2021/10/18 04:37:48;;;;;;;;;;;9.20;98.60;;;;;;5057382;28;20014;-68
2021/10/18 04:40:13;;;;;;;;;;;9.20;98.60;;;;;;5054252;28;19928;-68
2021/10/18 04:42:39;;;;;;;;;;;9.20;98.60;;;;;;5053775;28;20673;-69
2021/10/18 04:45:05;;;;;;;;;;;9.20;98.50;;;;;;5057611;28;19939;-68
2021/10/18 04:47:30;;;;;;;;;;;9.20;98.50;;;;;;5058035;28;20223;-67
2021/10/18 04:49:55;;;;;;;;;;;9.20;98.50;;;;;;5058367;28;19939;-67
2021/10/18 04:52:21;;;;;;;;;;;9.20;98.50;;;;;;5055497;28;19917;-68
2021/10/18 04:54:46;;;;;;;;;;;9.20;98.40;;;;;;5057359;28;19917;-68
2021/10/18 04:57:12;;;;;;;;;;;9.30;98.40;;;;;;5057723;28;19913;-67
2021/10/18 04:59:37;;;;;;;;;;;9.30;98.40;;;;;;5058620;28;19962;-68
2021/10/18 05:02:02;;;;;;;;;;;9.30;98.30;;;;;;5057587;28;19917;-67
2021/10/18 05:04:28;;;;;;;;;;;9.40;98.40;;;;;;5057191;28;19924;-67
2021/10/18 05:06:53;;;;;;;;;;;9.40;98.30;;;;;;5057026;28;20043;-67
2021/10/18 05:09:19;;;;;;;;;;;9.40;98.30;;;;;;5056955;28;19928;-68
2021/10/18 05:11:44;;;;;;;;;;;9.50;98.40;;;;;;5056947;28;19913;-67
2021/10/18 05:14:10;;;;;;;;;;;9.50;98.30;;;;;;5057678;28;20003;-67
2021/10/18 05:16:35;;;;;;;;;;;9.50;98.40;;;;;;5056249;28;20313;-68
2021/10/18 05:19:00;;;;;;;;;;;9.50;98.40;;;;;;5056970;28;20019;-67
2021/10/18 05:21:26;;;;;;;;;;;9.50;98.20;;;;;;5086514;22;19932;-72
2021/10/18 05:23:51;;;;;;;;;;;9.50;98.20;;;;;;5077350;28;19935;-71
2021/10/18 05:26:17;;;;;;;;;;;9.50;98.20;;;;;;5075674;28;19934;-72
2021/10/18 05:28:42;;;;;;;;;;;9.50;98.30;;;;;;5075414;28;20362;-71
2021/10/18 05:31:08;;;;;;;;;;;9.50;98.30;;;;;;5079416;28;20036;-71
2021/10/18 05:33:34;;;;;;;;;;;9.50;98.40;;;;;;5088310;28;19915;-71
2021/10/18 05:35:59;;;;;;;;;;;9.50;98.60;;;;;;5087780;28;19915;-71
2021/10/18 05:38:24;;;;;;;;;;;9.50;98.30;;;;;;5086218;28;19912;-71
2021/10/18 05:40:51;;;;;;;;;;;9.40;98.30;;;;;;5089080;28;19943;-71
2021/10/18 05:43:16;;;;;;;;;;;9.40;98.30;;;;;;5088633;28;19908;-72
2021/10/18 05:45:42;;;;;;;;;;;9.50;98.30;;;;;;5085314;28;19920;-72
2021/10/18 05:48:07;;;;;;;;;;;9.50;98.30;;;;;;5087882;28;19978;-72
2021/10/18 05:50:40;;;;;;;;;;;9.40;98.30;;;;;;5088480;28;19951;-72
2021/10/18 05:53:05;;;;;;;;;;;9.50;98.30;;;;;;5088266;28;19966;-72
2021/10/18 05:55:31;;;;;;;;;;;9.50;98.40;;;;;;5089022;28;20318;-72
2021/10/18 05:57:57;;;;;;;;;;;9.50;98.40;;;;;;5088866;28;19912;-71
2021/10/18 06:00:23;;;;;;;;;;;9.50;98.40;;;;;;5069503;28;19974;-71
2021/10/18 06:02:49;;;;;;;;;;;9.60;98.50;;;;;;5075309;28;19912;-72
2021/10/18 06:05:16;;;;;;;;;;;9.60;98.40;;;;;;5064666;28;20341;-70
2021/10/18 06:07:41;;;;;;;;;;;9.60;98.40;;;;;;5083104;28;19974;-71
2021/10/18 06:10:08;;;;;;;;;;;9.60;98.30;;;;;;5078329;28;19913;-70
2021/10/18 06:12:34;;;;;;;;;;;9.70;98.40;;;;;;5079002;28;20002;-70
2021/10/18 06:14:59;;;;;;;;;;;9.60;98.30;;;;;;5071276;28;19916;-72
2021/10/18 06:17:25;;;;;;;;;;;9.70;98.30;;;;;;5065767;28;20274;-71
2021/10/18 06:19:50;;;;;;;;;;;9.70;98.40;;;;;;5083326;28;19921;-72
2021/10/18 06:22:16;;;;;;;;;;;9.70;98.30;;;;;;5083851;28;20287;-72
2021/10/18 06:24:41;;;;;;;;;;;9.80;98.30;;;;;;5088522;28;19916;-73
2021/10/18 06:27:07;;;;;;;;;;;9.80;98.20;;;;;;5089645;28;19916;-72
2021/10/18 06:29:32;;;;;;;;;;;9.70;98.10;;;;;;5064023;28;19916;-71
2021/10/18 06:31:58;;;;;;;;;;;9.80;98.20;;;;;;5090093;28;19970;-70
2021/10/18 06:34:24;;;;;;;;;;;9.80;98.20;;;;;;5085010;28;20395;-69
2021/10/18 06:36:49;;;;;;;;;;;9.90;98.00;;;;;;5087747;28;19923;-70
2021/10/18 06:39:15;;;;;;;;;;;9.90;98.00;;;;;;5087113;28;19921;-70
2021/10/18 06:41:40;;;;;;;;;;;10.00;97.90;;;;;;5091236;28;19976;-70
2021/10/18 06:44:06;;;;;;;;;;;10.00;97.90;;;;;;5084458;28;19919;-71
2021/10/18 06:46:31;;;;;;;;;;;10.00;97.90;;;;;;5089380;28;19966;-71
2021/10/18 06:48:58;;;;;;;;;;;10.10;97.90;;;;;;5079288;28;20201;-70
2021/10/18 06:51:24;;;;;;;;;;;10.10;97.80;;;;;;5087967;28;19924;-70
2021/10/18 06:53:54;;;;;;;;;;;10.10;97.60;;;;;;5082401;28;19916;-72
2021/10/18 06:56:20;;;;;;;;;;;10.20;97.50;;;;;;5061762;28;19936;-72
2021/10/18 06:58:45;;;;;;;;;;;10.20;97.30;;;;;;5091891;28;19908;-71
2021/10/18 07:01:10;;;;;;;;;;;10.20;97.50;;;;;;5068354;28;19920;-71
2021/10/18 07:03:36;;;;;;;;;;;10.30;97.40;;;;;;5090720;28;19919;-71
2021/10/18 07:06:02;;;;;;;;;;;10.30;97.40;;;;;;5073939;28;20137;-72
2021/10/18 07:08:27;;;;;;;;;;;10.40;97.40;;;;;;5068227;28;19926;-71
2021/10/18 07:10:53;;;;;;;;;;;10.40;97.40;;;;;;5080470;28;19922;-70
2021/10/18 07:13:18;;;;;;;;;;;10.50;97.00;;;;;;5089241;28;19912;-70
2021/10/18 07:15:44;;;;;;;;;;;10.60;97.10;;;;;;5092334;28;20181;-70
2021/10/18 07:18:09;;;;;;;;;;;10.60;96.80;;;;;;5069404;28;19912;-70
2021/10/18 07:20:35;;;;;;;;;;;10.70;96.80;;;;;;5086613;28;19912;-70
2021/10/18 07:23:02;;;;;;;;;;;10.70;96.50;;;;;;5078406;28;19927;-70
2021/10/18 07:25:28;;;;;;;;;;;10.70;96.60;;;;;;5089692;28;19916;-72
2021/10/18 07:27:53;;;;;;;;;;;10.80;96.70;;;;;;5065354;28;20065;-72
2021/10/18 07:30:19;;;;;;;;;;;10.80;96.50;;;;;;5088943;28;19912;-71
2021/10/18 07:32:45;;;;;;;;;;;10.80;96.60;;;;;;5076242;28;20011;-70
2021/10/18 07:35:11;;;;;;;;;;;10.90;96.60;;;;;;5085203;28;20378;-70
2021/10/18 07:37:36;;;;;;;;;;;11.00;96.60;;;;;;5068150;28;19912;-70
2021/10/18 07:40:03;;;;;;;;;;;11.10;96.40;;;;;;5068781;28;20377;-70
2021/10/18 07:42:28;;;;;;;;;;;11.10;96.20;;;;;;5071573;28;19916;-70
2021/10/18 07:44:54;;;;;;;;;;;11.20;96.10;;;;;;5083564;28;19969;-70
2021/10/18 07:47:20;;;;;;;;;;;11.30;96.10;;;;;;5068624;28;19973;-70
2021/10/18 07:49:45;;;;;;;;;;;11.40;96.00;;;;;;5083415;28;20278;-71
2021/10/18 07:52:14;;;;;;;;;;;11.50;96.00;;;;;;5086239;28;19916;-71
2021/10/18 07:54:40;;;;;;;;;;;11.50;95.50;;;;;;5064683;28;20375;-71
2021/10/18 07:57:06;;;;;;;;;;;11.50;95.80;;;;;;5085837;28;19924;-70
2021/10/18 07:59:31;;;;;;;;;;;11.60;95.70;;;;;;5064379;28;19916;-70
2021/10/18 08:01:57;;;;;;;;;;;11.60;95.70;;;;;;5086236;28;19919;-70
2021/10/18 08:04:22;;;;;;;;;;;11.70;95.50;;;;;;5062426;28;19912;-71
2021/10/18 08:06:48;;;;;;;;;;;11.70;95.20;;;;;;5089641;28;19938;-72
2021/10/18 08:09:14;;;;;;;;;;;11.80;95.30;;;;;;5083893;28;19912;-72
2021/10/18 08:11:39;;;;;;;;;;;11.80;94.60;;;;;;5085441;28;19912;-71
2021/10/18 08:14:05;;;;;;;;;;;11.80;94.20;;;;;;5068940;28;19912;-72
2021/10/18 08:16:30;;;;;;;;;;;11.90;93.80;;;;;;5082864;28;19916;-72
2021/10/18 08:18:55;;;;;;;;;;;11.90;94.50;;;;;;5085499;28;19919;-71
2021/10/18 08:21:22;;;;;;;;;;;12.00;94.50;;;;;;5066836;28;19924;-72
2021/10/18 08:23:48;;;;;;;;;;;12.00;94.10;;;;;;5084595;28;19917;-73
2021/10/18 08:26:13;;;;;;;;;;;12.10;93.80;;;;;;5081288;28;19958;-72
2021/10/18 08:28:39;;;;;;;;;;;12.10;93.90;;;;;;5086783;28;19971;-72
2021/10/18 08:31:04;;;;;;;;;;;12.10;93.60;;;;;;5066799;28;19973;-73
2021/10/18 08:33:30;;;;;;;;;;;12.20;93.80;;;;;;5086026;28;19955;-72
2021/10/18 08:35:55;;;;;;;;;;;12.20;93.80;;;;;;5083463;28;20308;-73
2021/10/18 08:45:50;;;;;;;;;;;12.50;93.40;;;;;;5082228;28;19908;-75
2021/10/18 08:48:16;;;;;;;;;;;12.50;93.20;;;;;;5069141;28;19920;-76
2021/10/18 08:50:41;;;;;;;;;;;12.60;92.70;;;;;;5068844;28;19908;-76
2021/10/18 08:53:07;;;;;;;;;;;12.60;92.30;;;;;;5088185;28;19916;-73
2021/10/18 08:55:39;;;;;;;;;;;12.70;92.70;;;;;;5088018;28;20006;-73
2021/10/18 08:58:04;;;;;;;;;;;12.80;92.70;;;;;;5075935;28;20248;-73
2021/10/18 09:00:33;;;;;;;;;;;12.80;92.60;;;;;;5083252;28;19927;-73
2021/10/18 09:02:58;;;;;;;;;;;12.90;92.70;;;;;;5084591;28;19912;-75
2021/10/18 09:05:24;;;;;;;;;;;13.00;92.70;;;;;;5066050;28;20396;-74
2021/10/18 09:07:49;;;;;;;;;;;13.10;92.60;;;;;;5087169;28;20061;-72
2021/10/18 09:10:14;;;;;;;;;;;13.20;92.40;;;;;;5066543;28;19965;-73
2021/10/18 09:12:40;;;;;;;;;;;13.30;92.20;;;;;;5084021;28;20065;-72
2021/10/18 09:15:26;;;;;;;;;;;13.30;92.30;;;;;;5067553;28;20049;-72
2021/10/18 09:17:52;;;;;;;;;;;13.40;91.60;;;;;;5066495;28;19960;-71
2021/10/18 09:20:24;;;;;;;;;;;13.50;91.70;;;;;;5060604;28;20014;-71
2021/10/18 09:22:51;;;;;;;;;;;13.50;91.80;;;;;;5084291;28;19916;-72
2021/10/18 09:25:33;;;;;;;;;;;13.60;91.00;;;;;;5069640;28;19919;-72
2021/10/18 09:28:08;;;;;;;;;;;13.60;90.20;;;;;;5086248;28;19925;-72
2021/10/18 09:30:40;;;;;;;;;;;13.60;90.80;;;;;;5083533;28;19916;-72
2021/10/18 09:33:12;;;;;;;;;;;13.70;90.50;;;;;;5062566;28;19912;-73
2021/10/18 09:35:40;;;;;;;;;;;13.70;90.30;;;;;;5081685;28;20384;-73
2021/10/18 09:38:09;;;;;;;;;;;13.80;90.50;;;;;;5067515;28;20003;-74
2021/10/18 09:40:38;;;;;;;;;;;13.80;90.10;;;;;;5061811;28;20420;-74
2021/10/18 09:43:13;;;;;;;;;;;13.90;90.30;;;;;;5059875;28;19912;-74
2021/10/18 09:45:59;;;;;;;;;;;14.00;90.10;;;;;;5082992;28;19924;-72
2021/10/18 10:52:40;;;;;;;;;;;15.30;87.40;;;;;;5086910;28;20416;-71
2021/10/18 10:55:17;;;;;;;;;;;15.40;87.20;;;;;;5085749;28;20011;-70
2021/10/18 10:57:42;;;;;;;;;;;15.50;85.80;;;;;;5086925;28;19908;-72
2021/10/18 11:00:28;;;;;;;;;;;15.50;86.90;;;;;;5070046;28;19912;-71
2021/10/18 11:02:53;;;;;;;;;;;15.50;87.00;;;;;;5076099;28;20053;-70
2021/10/18 11:05:28;;;;;;;;;;;15.60;86.70;;;;;;5069354;28;19912;-71
2021/10/18 11:07:54;;;;;;;;;;;15.70;86.50;;;;;;5079463;28;20030;-71
2021/10/18 11:10:21;;;;;;;;;;;15.80;87.40;;;;;;5078251;28;20063;-70
2021/10/18 11:12:49;;;;;;;;;;;15.90;87.40;;;;;;5064019;28;19920;-70
2021/10/18 11:15:15;;;;;;;;;;;15.90;86.80;;;;;;5085534;28;19920;-70
2021/10/18 11:17:51;;;;;;;;;;;15.90;85.80;;;;;;5080021;28;19925;-73
2021/10/18 11:20:18;;;;;;;;;;;15.90;86.00;;;;;;5089761;28;19919;-73
2021/10/18 11:22:45;;;;;;;;;;;15.90;85.20;;;;;;5084595;28;20029;-69
2021/10/18 11:25:12;;;;;;;;;;;15.90;84.40;;;;;;5069858;28;19912;-69
2021/10/18 11:27:38;;;;;;;;;;;16.00;83.50;;;;;;5087641;28;20367;-72
2021/10/18 11:30:06;;;;;;;;;;;16.10;83.90;;;;;;5088784;28;19916;-73
2021/10/18 11:32:31;;;;;;;;;;;16.10;83.50;;;;;;5086263;28;19921;-74
2021/10/18 11:35:09;;;;;;;;;;;16.10;83.00;;;;;;5067302;28;19992;-73
2021/10/18 11:37:54;;;;;;;;;;;16.20;81.90;;;;;;5061011;28;20339;-71
2021/10/18 11:40:24;;;;;;;;;;;16.20;80.70;;;;;;5089988;28;19916;-77
2021/10/18 11:42:51;;;;;;;;;;;16.20;79.60;;;;;;5061264;28;19920;-73
2021/10/18 11:45:17;;;;;;;;;;;16.20;80.30;;;;;;5061220;28;19916;-74
2021/10/18 11:47:43;;;;;;;;;;;16.20;79.20;;;;;;5084851;28;20343;-73
2021/10/18 11:50:08;;;;;;;;;;;16.30;80.00;;;;;;5086406;28;19970;-75
2021/10/18 11:52:38;;;;;;;;;;;16.30;80.00;;;;;;5082658;28;20287;-73
2021/10/18 11:55:07;;;;;;;;;;;16.30;79.80;;;;;;5090240;28;20248;-72
2021/10/18 11:57:33;;;;;;;;;;;16.30;78.10;;;;;;5079348;28;20288;-69
2021/10/18 11:59:59;;;;;;;;;;;16.30;78.20;;;;;;5086653;28;19928;-70
2021/10/18 12:02:25;;;;;;;;;;;16.20;79.90;;;;;;5084723;28;19998;-73
2021/10/18 12:04:58;;;;;;;;;;;16.20;79.50;;;;;;5088009;28;20470;-74
2021/10/18 12:07:39;;;;;;;;;;;16.30;80.10;;;;;;5082098;28;20053;-74
2021/10/18 12:10:14;;;;;;;;;;;16.30;79.80;;;;;;5084171;28;19919;-74
2021/10/18 12:12:39;;;;;;;;;;;16.30;78.90;;;;;;5082447;28;19916;-74
2021/10/18 12:15:13;;;;;;;;;;;16.40;79.10;;;;;;5087885;28;20398;-73
2021/10/18 12:17:39;;;;;;;;;;;16.30;78.00;;;;;;5068970;28;19916;-73
2021/10/18 12:20:04;;;;;;;;;;;16.40;76.50;;;;;;5076459;28;20547;-73
2021/10/18 12:22:30;;;;;;;;;;;16.50;76.90;;;;;;5088598;28;20354;-74
2021/10/18 12:24:59;;;;;;;;;;;16.50;77.10;;;;;;5079790;28;19913;-70
2021/10/18 12:27:25;;;;;;;;;;;16.60;77.80;;;;;;5084713;28;19920;-72
2021/10/18 12:29:50;;;;;;;;;;;16.60;76.90;;;;;;5087280;28;19941;-73
2021/10/18 12:32:18;;;;;;;;;;;16.60;75.10;;;;;;5087101;28;19915;-73
2021/10/18 12:34:44;;;;;;;;;;;16.60;75.50;;;;;;5083835;28;20081;-73
2021/10/18 12:37:10;;;;;;;;;;;16.60;75.60;;;;;;5082169;28;20603;-74
2021/10/18 12:39:54;;;;;;;;;;;16.50;75.50;;;;;;5065524;28;19912;-72
2021/10/18 12:42:19;;;;;;;;;;;16.50;76.00;;;;;;5084695;28;19961;-73
2021/10/18 12:44:45;;;;;;;;;;;16.60;75.70;;;;;;5083844;28;19912;-73
2021/10/18 12:47:15;;;;;;;;;;;16.60;75.70;;;;;;5079563;28;20004;-72
2021/10/18 12:49:41;;;;;;;;;;;16.60;75.90;;;;;;5059812;28;20274;-72
2021/10/18 12:52:07;;;;;;;;;;;16.60;75.30;;;;;;5089151;28;19912;-72
2021/10/18 12:54:41;;;;;;;;;;;16.60;75.70;;;;;;5085407;28;19909;-74
2021/10/18 12:57:10;;;;;;;;;;;16.60;75.50;;;;;;5091411;28;19969;-74
2021/10/18 12:59:37;;;;;;;;;;;16.60;75.70;;;;;;5090043;28;19912;-73
2021/10/18 13:02:16;;;;;;;;;;;16.60;75.10;;;;;;5090835;28;19996;-73
2021/10/18 13:04:56;;;;;;;;;;;16.70;74.30;;;;;;5088619;28;20007;-73
2021/10/18 13:07:22;;;;;;;;;;;16.70;74.30;;;;;;5086028;28;20370;-72
2021/10/18 13:09:47;;;;;;;;;;;16.60;75.00;;;;;;5084984;28;19923;-71
2021/10/18 13:12:12;;;;;;;;;;;16.60;75.10;;;;;;5082895;28;19923;-74
2021/10/18 13:14:38;;;;;;;;;;;16.60;75.00;;;;;;5084230;28;19923;-74
2021/10/18 13:17:03;;;;;;;;;;;16.50;74.60;;;;;;5063451;28;19920;-73
2021/10/18 13:19:29;;;;;;;;;;;16.50;75.00;;;;;;5061375;28;20606;-73
2021/10/18 13:21:54;;;;;;;;;;;16.40;75.50;;;;;;5085760;28;19927;-74
2021/10/18 13:24:20;;;;;;;;;;;16.40;75.80;;;;;;5084964;28;20379;-73
2021/10/18 13:26:45;;;;;;;;;;;16.40;76.00;;;;;;5087182;28;20279;-75
2021/10/18 13:29:10;;;;;;;;;;;16.40;76.60;;;;;;5085234;28;20241;-73
2021/10/18 13:31:36;;;;;;;;;;;16.40;76.60;;;;;;5085134;28;19912;-71
2021/10/18 13:34:02;;;;;;;;;;;16.40;76.70;;;;;;5083968;28;19916;-71
2021/10/18 13:36:28;;;;;;;;;;;16.40;76.40;;;;;;5086257;28;19951;-71
2021/10/18 13:38:53;;;;;;;;;;;16.40;76.70;;;;;;5068453;28;19912;-72
2021/10/18 13:41:19;;;;;;;;;;;16.40;77.00;;;;;;5086165;28;20007;-73
2021/10/18 13:43:44;;;;;;;;;;;16.50;76.90;;;;;;5078847;28;20255;-72
2021/10/18 13:46:09;;;;;;;;;;;16.40;76.40;;;;;;5085057;28;20444;-73
2021/10/18 13:48:35;;;;;;;;;;;16.40;77.00;;;;;;5081567;28;19916;-73
2021/10/18 13:51:00;;;;;;;;;;;16.40;77.00;;;;;;5086628;28;20414;-73
2021/10/18 13:53:26;;;;;;;;;;;16.40;77.50;;;;;;5082134;28;20002;-74
2021/10/18 13:55:51;;;;;;;;;;;16.30;77.60;;;;;;5061595;28;19918;-75
2021/10/18 13:58:17;;;;;;;;;;;16.30;77.80;;;;;;5070131;28;19963;-75
2021/10/18 14:00:43;;;;;;;;;;;16.30;78.10;;;;;;5085188;28;19952;-74
2021/10/18 14:03:10;;;;;;;;;;;16.30;78.30;;;;;;5087737;28;19912;-75
2021/10/18 14:05:36;;;;;;;;;;;16.20;78.30;;;;;;5086278;28;19919;-75
2021/10/18 14:08:01;;;;;;;;;;;16.20;78.00;;;;;;5067916;28;20314;-75
2021/10/18 14:10:27;;;;;;;;;;;16.30;77.70;;;;;;5086919;28;20339;-75
2021/10/18 14:12:52;;;;;;;;;;;16.30;77.60;;;;;;5068953;28;19924;-76
2021/10/18 14:15:18;;;;;;;;;;;16.30;77.90;;;;;;5067124;28;19912;-76
2021/10/18 14:17:43;;;;;;;;;;;16.30;78.00;;;;;;5063984;28;19931;-76
2021/10/18 14:20:09;;;;;;;;;;;16.30;78.40;;;;;;5069083;28;19916;-75
2021/10/18 14:22:35;;;;;;;;;;;16.30;78.30;;;;;;5087587;28;20443;-74
2021/10/18 14:25:01;;;;;;;;;;;16.30;78.50;;;;;;5068314;28;19919;-75
2021/10/18 14:27:26;;;;;;;;;;;16.20;78.70;;;;;;5089159;28;19916;-75
2021/10/18 14:29:52;;;;;;;;;;;16.20;78.50;;;;;;5086995;28;19916;-75
2021/10/18 14:32:17;;;;;;;;;;;16.10;78.60;;;;;;5084039;28;19966;-76
2021/10/18 14:34:42;;;;;;;;;;;16.10;79.00;;;;;;5082989;28;19922;-75
2021/10/18 14:37:08;;;;;;;;;;;16.00;79.20;;;;;;5086855;28;19912;-75
2021/10/18 14:39:33;;;;;;;;;;;16.00;79.20;;;;;;5087121;28;19916;-76
2021/10/18 14:41:59;;;;;;;;;;;16.00;79.20;;;;;;5070721;28;19912;-75
2021/10/18 14:44:26;;;;;;;;;;;15.90;79.40;;;;;;5089253;28;19955;-75
2021/10/18 14:46:51;;;;;;;;;;;15.90;79.70;;;;;;5090393;28;19924;-75
2021/10/18 14:49:17;;;;;;;;;;;15.80;80.00;;;;;;5068873;28;20286;-76
2021/10/18 14:51:42;;;;;;;;;;;15.80;80.40;;;;;;5089256;28;19919;-76
2021/10/18 14:54:10;;;;;;;;;;;15.80;80.40;;;;;;5090051;28;19923;-75
2021/10/18 14:56:36;;;;;;;;;;;15.80;80.50;;;;;;5090691;28;19919;-75
2021/10/18 14:59:02;;;;;;;;;;;15.80;80.60;;;;;;5091018;28;19984;-75
2021/10/18 15:01:27;;;;;;;;;;;15.70;80.80;;;;;;5088734;28;20010;-76
2021/10/18 15:03:53;;;;;;;;;;;15.70;80.80;;;;;;5089030;28;19916;-75
2021/10/18 15:06:19;;;;;;;;;;;15.70;81.00;;;;;;5088624;28;19912;-76
2021/10/18 15:08:44;;;;;;;;;;;15.60;80.90;;;;;;5092602;28;19923;-75
2021/10/18 15:11:10;;;;;;;;;;;15.60;81.10;;;;;;5089734;28;19919;-74
2021/10/18 15:13:37;;;;;;;;;;;15.60;81.50;;;;;;5090016;28;20294;-74
2021/10/18 15:16:02;;;;;;;;;;;15.60;81.60;;;;;;5091525;28;19957;-76
2021/10/18 15:18:28;;;;;;;;;;;15.50;81.80;;;;;;5090267;28;20427;-75
2021/10/18 15:20:54;;;;;;;;;;;15.50;82.10;;;;;;5087873;28;19916;-75
2021/10/18 15:23:19;;;;;;;;;;;15.40;82.20;;;;;;5070815;28;19923;-76
2021/10/18 15:25:45;;;;;;;;;;;15.40;82.50;;;;;;5072256;28;20382;-75
2021/10/18 15:28:10;;;;;;;;;;;15.30;82.70;;;;;;5091282;28;19922;-75